Time;durP1;ratioP1;P1;durP2;ratioP2;P2;SDS_P1;SDS_P2;PMS_P1;PMS_P2;Temp;Humidity;BMP_temperature;BMP_pressure;BME280_temperature;BME280_humidity;BME280_pressure;Samples;Min_cycle;Max_cycle;Signal;HPM_P1;HPM_P2
2022/10/24 00:01:51;;;;;;;10.18;2.85;;;17.00;92.50;;;;;;4986630;28;20031;-82
2022/10/24 00:04:16;;;;;;;8.27;1.65;;;17.10;92.60;;;;;;4965930;28;20058;-83
2022/10/24 00:06:42;;;;;;;5.75;1.80;;;17.10;92.20;;;;;;4983699;28;20079;-83
2022/10/24 00:09:08;;;;;;;4.60;1.80;;;17.10;92.10;;;;;;4983072;28;20027;-83
2022/10/24 00:11:33;;;;;;;6.47;1.58;;;17.10;92.10;;;;;;4988353;28;20530;-83
2022/10/24 00:14:00;;;;;;;6.22;1.65;;;17.10;92.10;;;;;;5017040;28;20026;-82
2022/10/24 00:16:27;;;;;;;5.40;1.38;;;17.00;92.20;;;;;;5019343;28;20026;-81
2022/10/24 00:18:53;;;;;;;4.10;1.60;;;17.00;92.30;;;;;;5017753;28;20040;-81
2022/10/24 00:21:19;;;;;;;6.82;1.42;;;17.00;92.30;;;;;;5018527;28;20031;-82
2022/10/24 00:23:45;;;;;;;6.80;1.40;;;17.00;92.40;;;;;;5018739;28;20013;-82
2022/10/24 00:26:12;;;;;;;8.68;1.52;;;17.00;92.50;;;;;;5009227;28;20165;-82
2022/10/24 00:28:38;;;;;;;3.97;1.50;;;16.90;92.60;;;;;;5001616;28;20038;-83
2022/10/24 00:31:06;;;;;;;4.85;1.33;;;16.90;92.80;;;;;;5000854;28;20031;-83
2022/10/24 00:33:33;;;;;;;5.30;1.08;;;16.80;93.10;;;;;;4984184;28;20049;-82
2022/10/24 00:35:59;;;;;;;4.78;1.77;;;16.80;93.50;;;;;;4982349;28;20090;-82
2022/10/24 00:38:25;;;;;;;2.20;1.05;;;16.70;93.70;;;;;;4990566;28;20038;-82
2022/10/24 00:40:51;;;;;;;3.08;0.85;;;16.70;94.30;;;;;;4988902;28;20039;-82
2022/10/24 00:43:20;;;;;;;4.75;1.50;;;16.60;94.70;;;;;;5005064;28;20030;-83
2022/10/24 00:45:58;;;;;;;3.75;1.00;;;16.50;95.60;;;;;;5002313;28;20448;-82
2022/10/24 00:48:27;;;;;;;3.20;1.65;;;16.40;96.70;;;;;;5007839;28;20026;-82
2022/10/24 00:51:25;;;;;;;5.28;1.38;;;16.20;97.70;;;;;;5009604;28;20038;-82
2022/10/24 00:54:03;;;;;;;4.85;1.33;;;16.00;99.00;;;;;;5003188;28;20468;-82
2022/10/24 00:56:36;;;;;;;3.03;1.60;;;15.80;99.80;;;;;;4999802;28;20027;-82
2022/10/24 00:59:06;;;;;;;3.47;1.33;;;15.70;99.90;;;;;;5003528;28;20050;-82
2022/10/24 01:01:33;;;;;;;4.13;1.65;;;15.60;99.90;;;;;;5002134;28;20042;-82
2022/10/24 01:03:59;;;;;;;4.32;1.00;;;15.60;99.90;;;;;;5000540;28;20471;-82
2022/10/24 01:06:42;;;;;;;3.88;1.00;;;15.50;99.90;;;;;;4984027;28;20033;-82
2022/10/24 01:09:47;;;;;;;4.90;1.83;;;15.40;99.90;;;;;;5000050;28;20154;-82
2022/10/24 01:12:43;;;;;;;4.32;1.27;;;15.30;99.90;;;;;;5000083;28;20036;-82
2022/10/24 01:15:21;;;;;;;4.30;1.73;;;15.20;99.90;;;;;;4986055;28;20456;-82
2022/10/24 01:17:58;;;;;;;4.40;1.45;;;15.10;99.90;;;;;;4999551;28;20046;-82
2022/10/24 01:20:58;;;;;;;7.75;1.80;;;15.10;99.90;;;;;;4981525;28;20077;-83
2022/10/24 01:23:51;;;;;;;5.03;1.13;;;15.00;99.90;;;;;;5005026;28;20037;-82
2022/10/24 01:26:16;;;;;;;4.43;1.63;;;15.00;99.90;;;;;;4980940;28;20033;-82
2022/10/24 01:28:45;;;;;;;3.30;1.05;;;15.00;99.90;;;;;;4979733;28;20456;-82
2022/10/24 01:31:19;;;;;;;2.67;1.58;;;14.90;99.90;;;;;;4961540;28;20027;-83
2022/10/24 01:33:52;;;;;;;4.80;1.40;;;14.90;99.90;;;;;;4979052;28;20018;-82
2022/10/24 01:36:31;;;;;;;8.05;2.17;;;14.90;99.90;;;;;;4998672;28;20100;-82
2022/10/24 01:39:02;;;;;;;4.93;1.75;;;14.80;99.90;;;;;;4999191;28;20084;-82
2022/10/24 01:41:30;;;;;;;7.70;2.13;;;14.80;99.90;;;;;;4998235;28;20037;-83
2022/10/24 01:44:08;;;;;;;3.92;1.90;;;14.80;99.90;;;;;;4998294;28;20083;-82
2022/10/24 01:46:38;;;;;;;4.00;1.60;;;14.70;99.90;;;;;;4979602;28;20050;-82
2022/10/24 01:49:12;;;;;;;7.82;2.17;;;14.70;99.90;;;;;;4978315;28;20467;-82
2022/10/24 01:51:39;;;;;;;5.82;1.83;;;14.80;99.90;;;;;;4981289;28;20030;-82
2022/10/24 01:54:07;;;;;;;7.38;1.67;;;14.80;99.90;;;;;;4993158;28;20424;-82
2022/10/24 01:56:33;;;;;;;6.15;1.92;;;14.80;99.90;;;;;;4997934;28;20061;-82
2022/10/24 01:59:28;;;;;;;10.40;2.10;;;14.80;99.90;;;;;;4998169;28;20030;-82
2022/10/24 02:02:07;;;;;;;9.55;1.65;;;14.80;99.90;;;;;;4996784;28;20031;-82
2022/10/24 02:04:37;;;;;;;2.88;1.25;;;14.80;99.90;;;;;;4997953;28;20027;-82
2022/10/24 02:07:07;;;;;;;4.18;1.23;;;14.80;99.90;;;;;;4980359;28;20018;-82
2022/10/24 02:09:37;;;;;;;4.65;1.38;;;14.70;99.90;;;;;;4976891;28;20033;-82
2022/10/24 02:12:06;;;;;;;3.22;1.40;;;14.70;99.90;;;;;;4981129;28;20041;-82
2022/10/24 02:14:39;;;;;;;3.85;1.17;;;14.70;99.90;;;;;;4978466;28;20102;-82
2022/10/24 02:17:05;;;;;;;4.95;1.48;;;14.70;99.90;;;;;;4979059;28;20087;-82
2022/10/24 02:19:32;;;;;;;2.42;1.10;;;14.70;99.90;;;;;;4978288;28;20087;-83
2022/10/24 02:22:02;;;;;;;2.95;1.30;;;14.70;99.90;;;;;;4978866;28;20477;-83
2022/10/24 02:24:53;;;;;;;5.15;1.45;;;14.60;99.90;;;;;;4993692;28;20025;-83
2022/10/24 02:27:38;;;;;;;6.10;2.35;;;14.60;99.90;;;;;;4992482;28;20085;-83
2022/10/24 02:30:12;;;;;;;2.67;0.80;;;14.60;99.90;;;;;;4999263;28;20042;-83
2022/10/24 02:32:42;;;;;;;6.78;1.60;;;14.60;99.90;;;;;;5000586;28;20113;-83
2022/10/24 02:35:11;;;;;;;2.78;1.42;;;14.50;99.90;;;;;;4998635;28;20468;-83
2022/10/24 02:37:42;;;;;;;5.18;1.35;;;14.50;99.90;;;;;;4998694;28;20073;-83
2022/10/24 02:40:10;;;;;;;7.75;1.60;;;14.60;99.90;;;;;;4997078;28;20149;-83
2022/10/24 02:42:37;;;;;;;7.53;1.65;;;14.50;99.90;;;;;;4980896;28;20189;-82
2022/10/24 02:45:06;;;;;;;4.18;1.50;;;14.50;99.90;;;;;;5000353;28;20034;-83
2022/10/24 02:47:33;;;;;;;9.60;1.42;;;14.50;99.90;;;;;;4997364;28;20060;-83
2022/10/24 02:49:59;;;;;;;4.60;1.30;;;14.50;99.90;;;;;;4980580;28;20023;-83
2022/10/24 02:52:24;;;;;;;5.22;1.33;;;14.50;99.90;;;;;;5000373;28;20062;-83
2022/10/24 02:54:50;;;;;;;6.40;1.23;;;14.50;99.90;;;;;;4998127;28;20029;-83
2022/10/24 02:57:16;;;;;;;10.88;2.42;;;14.60;99.90;;;;;;4997298;28;20491;-83
2022/10/24 02:59:41;;;;;;;3.22;1.23;;;14.60;99.90;;;;;;4992635;28;20019;-83
2022/10/24 03:02:07;;;;;;;3.42;1.42;;;14.50;99.90;;;;;;4980070;28;20027;-82
2022/10/24 03:04:33;;;;;;;3.25;0.95;;;14.60;99.90;;;;;;4980024;28;20062;-81
2022/10/24 03:06:59;;;;;;;9.23;1.42;;;14.60;99.90;;;;;;4980659;28;20038;-82
2022/10/24 03:09:24;;;;;;;5.65;1.20;;;14.60;99.90;;;;;;5000849;28;20022;-83
2022/10/24 03:11:50;;;;;;;3.22;1.27;;;14.60;99.90;;;;;;5000107;28;20471;-82
2022/10/24 03:14:16;;;;;;;2.78;0.80;;;14.60;99.90;;;;;;5001879;28;20118;-83
2022/10/24 03:16:41;;;;;;;6.00;1.00;;;14.60;99.90;;;;;;5007303;28;20290;-84
2022/10/24 03:19:07;;;;;;;5.93;1.15;;;14.60;99.90;;;;;;4998016;28;20038;-83
2022/10/24 03:21:33;;;;;;;2.95;1.00;;;14.60;99.90;;;;;;4988436;28;20061;-83
2022/10/24 03:23:59;;;;;;;5.70;0.90;;;14.60;99.90;;;;;;4995980;28;20012;-84
2022/10/24 03:26:24;;;;;;;4.40;1.10;;;14.60;99.90;;;;;;5007008;28;20049;-83
2022/10/24 03:28:50;;;;;;;2.60;1.02;;;14.60;99.90;;;;;;5006341;28;20031;-84
2022/10/24 03:31:16;;;;;;;2.20;0.80;;;14.60;99.90;;;;;;5006670;28;20034;-84
2022/10/24 03:33:41;;;;;;;3.55;1.20;;;14.60;99.90;;;;;;5008465;28;20073;-83
2022/10/24 03:36:07;;;;;;;4.95;0.93;;;14.60;99.90;;;;;;5007332;28;20023;-83
2022/10/24 03:38:33;;;;;;;3.60;1.08;;;14.70;99.90;;;;;;5002792;28;20046;-83
2022/10/24 03:40:59;;;;;;;7.13;1.38;;;14.70;99.90;;;;;;4990392;28;20399;-83
2022/10/24 03:43:24;;;;;;;4.03;1.20;;;14.70;99.90;;;;;;5011158;28;20403;-83
2022/10/24 03:45:50;;;;;;;3.03;1.02;;;14.70;99.90;;;;;;5010842;28;20022;-83
2022/10/24 03:48:15;;;;;;;4.15;1.13;;;14.70;99.90;;;;;;5018098;28;20030;-84
2022/10/24 03:50:41;;;;;;;2.35;1.35;;;14.70;99.90;;;;;;5018775;28;20030;-82
2022/10/24 03:53:07;;;;;;;1.83;0.98;;;14.70;99.90;;;;;;5019571;28;20026;-84
2022/10/24 03:55:32;;;;;;;1.88;1.13;;;14.70;99.90;;;;;;5013572;28;20030;-84
2022/10/24 03:57:58;;;;;;;5.97;1.25;;;14.70;99.90;;;;;;5007446;28;20041;-83
2022/10/24 04:00:26;;;;;;;3.13;1.27;;;14.70;99.90;;;;;;5006253;28;20027;-87
2022/10/24 04:02:52;;;;;;;5.32;1.50;;;14.70;99.90;;;;;;4994407;28;20051;-83
2022/10/24 04:05:18;;;;;;;3.50;1.30;;;14.70;99.90;;;;;;5015386;28;20456;-84
2022/10/24 04:07:44;;;;;;;4.30;1.55;;;14.80;99.90;;;;;;5002103;28;20073;-84
2022/10/24 04:10:10;;;;;;;3.92;1.05;;;14.80;99.90;;;;;;4976321;28;20065;-83
2022/10/24 04:12:36;;;;;;;4.55;1.05;;;14.80;99.90;;;;;;4984670;28;20027;-83
2022/10/24 04:15:02;;;;;;;1.85;0.90;;;14.80;99.90;;;;;;4985979;28;20031;-83
2022/10/24 04:17:28;;;;;;;6.90;1.30;;;14.80;99.90;;;;;;4985638;28;20030;-84
2022/10/24 04:19:53;;;;;;;2.80;1.15;;;14.80;99.90;;;;;;5004970;28;20030;-84
2022/10/24 04:22:19;;;;;;;2.38;0.95;;;14.90;99.90;;;;;;5007203;28;20030;-84
2022/10/24 04:24:45;;;;;;;2.95;1.45;;;14.90;99.90;;;;;;5005399;28;20101;-84
2022/10/24 04:27:11;;;;;;;2.50;1.13;;;14.90;99.90;;;;;;5007581;28;20031;-84
2022/10/24 04:29:36;;;;;;;4.50;1.17;;;14.90;99.90;;;;;;4997966;28;20049;-84
2022/10/24 04:32:03;;;;;;;1.63;1.10;;;14.90;99.90;;;;;;5003347;28;20066;-85
2022/10/24 04:34:29;;;;;;;2.85;1.33;;;15.00;99.90;;;;;;4990783;28;20034;-84
2022/10/24 04:36:54;;;;;;;0.93;0.70;;;14.90;99.90;;;;;;4987233;28;20022;-87
2022/10/24 04:39:20;;;;;;;1.88;1.13;;;14.90;99.90;;;;;;4999861;28;20175;-80
2022/10/24 04:41:46;;;;;;;1.10;0.90;;;14.90;99.90;;;;;;5005405;28;20483;-83
2022/10/24 04:44:12;;;;;;;2.40;1.20;;;14.90;99.90;;;;;;5001930;28;20440;-81
2022/10/24 04:46:37;;;;;;;1.00;1.00;;;14.90;99.90;;;;;;4984469;28;20022;-82
2022/10/24 04:49:03;;;;;;;2.45;1.40;;;14.90;99.90;;;;;;5000656;28;20027;-82
2022/10/24 04:51:35;;;;;;;2.13;1.38;;;14.80;99.90;;;;;;4982076;28;20038;-86
2022/10/24 04:54:01;;;;;;;8.25;2.13;;;14.80;99.90;;;;;;5001181;28;20026;-81
2022/10/24 04:56:26;;;;;;;5.55;2.05;;;14.80;99.90;;;;;;4997042;28;20042;-83
2022/10/24 04:58:52;;;;;;;7.28;2.20;;;14.80;99.90;;;;;;4989874;28;20026;-84
2022/10/24 05:01:18;;;;;;;5.28;2.17;;;14.70;99.90;;;;;;5002466;28;20033;-84
2022/10/24 05:03:43;;;;;;;8.15;1.60;;;14.70;99.90;;;;;;5001503;28;20030;-83
2022/10/24 05:06:09;;;;;;;6.95;2.13;;;14.70;99.90;;;;;;4990416;28;20133;-82
2022/10/24 05:08:35;;;;;;;5.30;1.67;;;14.70;99.90;;;;;;5003043;28;20101;-81
2022/10/24 05:11:01;;;;;;;10.20;2.10;;;14.70;99.90;;;;;;5000189;28;20030;-83
2022/10/24 05:13:27;;;;;;;6.47;1.73;;;14.60;99.90;;;;;;5001620;28;20050;-82
2022/10/24 05:15:52;;;;;;;5.80;1.85;;;14.60;99.90;;;;;;5003281;28;20046;-84
2022/10/24 05:18:18;;;;;;;9.50;2.10;;;14.60;99.90;;;;;;5004890;28;20027;-83
2022/10/24 05:20:44;;;;;;;12.15;2.53;;;14.60;99.90;;;;;;4997592;28;20494;-83
2022/10/24 05:23:09;;;;;;;5.57;2.13;;;14.60;99.90;;;;;;4986271;28;20110;-83
2022/10/24 05:25:35;;;;;;;7.55;2.30;;;14.60;99.90;;;;;;5005467;28;20026;-83
2022/10/24 05:28:01;;;;;;;8.02;2.22;;;14.60;99.90;;;;;;4989811;28;20094;-82
2022/10/24 05:30:27;;;;;;;5.45;2.75;;;14.60;99.90;;;;;;5007238;28;20030;-82
2022/10/24 05:32:52;;;;;;;8.18;2.50;;;14.60;99.90;;;;;;4987247;28;20046;-84
2022/10/24 05:35:18;;;;;;;5.65;2.88;;;14.70;99.90;;;;;;4987607;28;20022;-82
2022/10/24 05:37:44;;;;;;;5.25;2.28;;;14.70;99.90;;;;;;4987726;28;20034;-82
2022/10/24 05:40:10;;;;;;;6.85;2.28;;;14.70;99.90;;;;;;4989622;28;20043;-83
2022/10/24 05:42:37;;;;;;;8.23;2.53;;;14.70;99.90;;;;;;4990585;28;20023;-84
2022/10/24 05:45:05;;;;;;;10.27;2.75;;;14.60;99.90;;;;;;4987374;28;20019;-84
2022/10/24 05:47:31;;;;;;;11.07;2.72;;;14.50;99.90;;;;;;4988973;28;20026;-85
2022/10/24 05:49:56;;;;;;;7.28;2.58;;;14.40;99.90;;;;;;4987298;28;20027;-83
2022/10/24 05:52:22;;;;;;;7.45;2.80;;;14.40;99.90;;;;;;4997173;28;20031;-83
2022/10/24 05:54:48;;;;;;;10.60;2.72;;;14.30;99.90;;;;;;5005449;28;20041;-81
2022/10/24 05:57:13;;;;;;;9.13;2.58;;;14.30;99.90;;;;;;5000602;28;20022;-84
2022/10/24 05:59:39;;;;;;;4.95;2.85;;;14.30;99.90;;;;;;4998089;28;20399;-84
2022/10/24 06:02:05;;;;;;;4.03;2.00;;;14.30;99.90;;;;;;4998659;28;20050;-84
2022/10/24 06:04:30;;;;;;;7.18;2.85;;;14.30;99.90;;;;;;4984200;28;20031;-84
2022/10/24 06:06:56;;;;;;;9.02;2.55;;;14.30;99.90;;;;;;4984286;28;20131;-84
2022/10/24 06:09:21;;;;;;;10.48;2.28;;;14.30;99.90;;;;;;4986309;28;20019;-83
2022/10/24 06:11:47;;;;;;;5.82;2.10;;;14.30;99.90;;;;;;4986021;28;20041;-83
2022/10/24 06:14:13;;;;;;;6.95;2.80;;;14.30;99.90;;;;;;5004794;28;20118;-83
2022/10/24 06:16:38;;;;;;;4.28;2.30;;;14.30;99.90;;;;;;5002779;28;20039;-82
2022/10/24 06:19:04;;;;;;;11.60;3.00;;;14.30;99.90;;;;;;4984860;28;20022;-83
2022/10/24 06:21:30;;;;;;;5.95;2.10;;;14.30;99.90;;;;;;5003272;28;20030;-83
2022/10/24 06:23:56;;;;;;;7.00;2.13;;;14.30;99.90;;;;;;4998075;28;20026;-83
2022/10/24 06:26:22;;;;;;;8.90;2.50;;;14.30;99.90;;;;;;4998732;28;20090;-83
2022/10/24 06:28:48;;;;;;;9.40;2.13;;;14.40;99.90;;;;;;5000115;28;20048;-83
2022/10/24 06:31:13;;;;;;;9.80;2.35;;;14.30;99.90;;;;;;4981420;28;20026;-83
2022/10/24 06:33:39;;;;;;;6.78;2.10;;;14.40;99.90;;;;;;4989767;28;20062;-81
2022/10/24 06:36:08;;;;;;;5.20;1.83;;;14.40;99.90;;;;;;4991823;28;20053;-83
2022/10/24 06:38:34;;;;;;;6.60;2.38;;;14.40;99.90;;;;;;5012919;28;20038;-82
2022/10/24 06:41:07;;;;;;;6.97;2.10;;;14.40;99.90;;;;;;5013821;28;20032;-82
2022/10/24 06:43:34;;;;;;;5.50;1.80;;;14.50;99.90;;;;;;5005901;28;20053;-81
2022/10/24 06:46:04;;;;;;;6.15;1.90;;;14.50;99.90;;;;;;4994076;28;20039;-80
2022/10/24 06:48:31;;;;;;;4.88;1.98;;;14.50;99.90;;;;;;4993646;28;20023;-81
2022/10/24 06:50:57;;;;;;;10.13;2.03;;;14.60;99.90;;;;;;4996449;28;20023;-82
2022/10/24 06:53:22;;;;;;;4.70;1.90;;;14.60;99.90;;;;;;4998288;28;20022;-79
2022/10/24 06:55:48;;;;;;;3.55;1.60;;;14.60;99.90;;;;;;5006513;28;20027;-80
2022/10/24 06:58:14;;;;;;;3.88;1.88;;;14.70;99.90;;;;;;4989488;28;20053;-81
2022/10/24 07:00:39;;;;;;;9.73;2.10;;;14.70;99.90;;;;;;5019920;28;20022;-81
2022/10/24 07:03:05;;;;;;;4.00;1.88;;;14.70;99.90;;;;;;5021940;28;20089;-81
2022/10/24 07:05:31;;;;;;;5.28;1.60;;;14.70;99.90;;;;;;5005174;28;20035;-81
2022/10/24 07:07:57;;;;;;;8.55;1.90;;;14.60;99.90;;;;;;4990857;28;20035;-82
2022/10/24 07:10:22;;;;;;;1.92;1.40;;;14.70;99.90;;;;;;5004054;28;20022;-80
2022/10/24 07:12:48;;;;;;;1.90;1.23;;;14.70;99.90;;;;;;5011958;28;20030;-81
2022/10/24 07:15:14;;;;;;;2.85;1.52;;;14.70;99.90;;;;;;5007701;28;20046;-82
2022/10/24 07:17:41;;;;;;;5.60;2.75;;;14.70;99.90;;;;;;4992985;28;20042;-81
2022/10/24 07:20:07;;;;;;;4.22;1.77;;;14.70;99.90;;;;;;4987704;28;20053;-82
2022/10/24 07:22:34;;;;;;;3.70;1.70;;;14.70;99.90;;;;;;4990150;28;20027;-82
2022/10/24 07:25:00;;;;;;;2.97;1.75;;;14.70;99.90;;;;;;5005973;28;20018;-82
2022/10/24 07:27:26;;;;;;;1.85;1.23;;;14.70;99.90;;;;;;5005855;28;20026;-82
2022/10/24 07:29:52;;;;;;;3.40;1.83;;;14.70;99.90;;;;;;5008140;28;20478;-82
2022/10/24 07:32:19;;;;;;;5.68;1.80;;;14.70;99.90;;;;;;5007737;28;20057;-82
2022/10/24 07:34:46;;;;;;;3.70;1.45;;;14.70;99.90;;;;;;5008563;28;20050;-81
2022/10/24 07:37:13;;;;;;;1.98;1.30;;;14.70;99.90;;;;;;5015233;28;20053;-81
2022/10/24 07:39:38;;;;;;;4.28;1.80;;;14.80;99.90;;;;;;5028227;28;20114;-83
2022/10/24 07:42:04;;;;;;;5.32;1.65;;;14.80;99.90;;;;;;5028340;28;20030;-82
2022/10/24 07:44:30;;;;;;;4.60;1.42;;;14.80;99.90;;;;;;5029491;28;20133;-83
2022/10/24 07:46:56;;;;;;;5.28;1.98;;;14.80;99.90;;;;;;4990567;28;20035;-83
2022/10/24 07:49:21;;;;;;;4.35;1.65;;;14.80;99.90;;;;;;5000767;28;20031;-83
2022/10/24 07:51:47;;;;;;;1.55;0.98;;;14.90;99.90;;;;;;4999038;28;20284;-83
2022/10/24 07:54:13;;;;;;;2.58;1.40;;;14.90;99.90;;;;;;5002353;28;20022;-82
2022/10/24 07:56:38;;;;;;;3.60;1.30;;;14.90;99.90;;;;;;4991820;28;20034;-83
2022/10/24 07:59:04;;;;;;;3.25;1.35;;;14.90;99.90;;;;;;4998432;28;20026;-82
2022/10/24 08:01:31;;;;;;;4.03;1.27;;;14.80;99.90;;;;;;5003365;28;20026;-82
2022/10/24 08:03:57;;;;;;;2.35;1.10;;;14.80;99.90;;;;;;5002950;28;20132;-83
2022/10/24 08:06:28;;;;;;;1.42;1.20;;;14.90;99.90;;;;;;5004035;28;20058;-82
2022/10/24 08:08:54;;;;;;;3.25;1.25;;;14.90;99.90;;;;;;5004827;28;20033;-82
2022/10/24 08:11:25;;;;;;;3.60;1.48;;;14.90;99.90;;;;;;5003383;28;20078;-84
2022/10/24 08:13:52;;;;;;;7.05;1.40;;;14.90;99.90;;;;;;5004033;28;20018;-83
2022/10/24 08:16:20;;;;;;;3.25;1.58;;;14.90;99.90;;;;;;4994157;28;20027;-82
2022/10/24 08:18:46;;;;;;;2.75;1.40;;;14.90;99.90;;;;;;5010607;28;20084;-82
2022/10/24 08:21:15;;;;;;;3.35;1.58;;;15.00;99.90;;;;;;5009749;28;20130;-82
2022/10/24 08:23:43;;;;;;;3.70;1.27;;;15.00;99.90;;;;;;5014176;28;20026;-82
2022/10/24 08:26:13;;;;;;;2.17;1.40;;;15.00;99.90;;;;;;5013247;28;20304;-81
2022/10/24 08:28:40;;;;;;;2.83;1.27;;;15.10;99.90;;;;;;4994857;28;20030;-81
2022/10/24 08:31:15;;;;;;;2.50;1.20;;;15.10;99.90;;;;;;4988058;28;20019;-81
2022/10/24 08:33:41;;;;;;;2.92;1.27;;;15.20;99.90;;;;;;4986411;28;20041;-81
2022/10/24 08:36:27;;;;;;;5.32;1.73;;;15.30;99.90;;;;;;4987094;28;20043;-82
2022/10/24 08:38:53;;;;;;;2.22;1.63;;;15.30;99.90;;;;;;4983267;28;20062;-82
2022/10/24 08:41:37;;;;;;;3.75;2.35;;;15.40;99.90;;;;;;4984217;28;20031;-82
2022/10/24 08:44:10;;;;;;;6.55;2.13;;;15.50;99.90;;;;;;4986339;28;20033;-83
2022/10/24 08:46:49;;;;;;;4.82;1.88;;;15.60;99.90;;;;;;4985160;28;20015;-83
2022/10/24 08:49:33;;;;;;;7.00;2.28;;;15.60;99.90;;;;;;4984864;28;20076;-83
2022/10/24 08:52:20;;;;;;;6.68;1.95;;;15.60;99.90;;;;;;4986371;28;20023;-82
2022/10/24 08:54:46;;;;;;;6.25;2.20;;;15.70;99.90;;;;;;5001315;28;20030;-81
2022/10/24 08:57:21;;;;;;;3.35;1.67;;;15.70;99.90;;;;;;5006877;28;20068;-83
2022/10/24 08:59:47;;;;;;;4.25;1.38;;;15.70;99.90;;;;;;5022338;28;20034;-83
2022/10/24 09:02:18;;;;;;;3.78;2.08;;;15.80;99.90;;;;;;5005314;28;20022;-82
2022/10/24 09:04:57;;;;;;;2.60;1.33;;;15.80;99.90;;;;;;5006076;28;20403;-82
2022/10/24 09:07:23;;;;;;;2.97;1.88;;;15.70;99.90;;;;;;4997671;28;20117;-83
2022/10/24 09:10:00;;;;;;;3.33;2.15;;;15.70;99.90;;;;;;5010883;28;20022;-82
2022/10/24 09:12:26;;;;;;;5.18;1.70;;;15.60;99.90;;;;;;5003488;28;20026;-82
2022/10/24 09:14:58;;;;;;;2.45;1.30;;;15.60;99.90;;;;;;5004624;28;20037;-82
2022/10/24 09:17:35;;;;;;;6.18;1.92;;;15.70;99.90;;;;;;4988324;28;20038;-82
2022/10/24 09:20:16;;;;;;;6.28;2.65;;;15.70;99.90;;;;;;4987806;28;20094;-82
2022/10/24 09:22:43;;;;;;;3.10;1.67;;;15.90;99.90;;;;;;5004579;28;20030;-82
2022/10/24 09:25:16;;;;;;;4.45;1.67;;;16.00;99.90;;;;;;5019100;28;20041;-81
2022/10/24 09:27:42;;;;;;;4.32;1.75;;;16.10;99.90;;;;;;5006709;28;20365;-81
2022/10/24 09:30:17;;;;;;;1.95;1.73;;;16.20;99.90;;;;;;4992442;28;20022;-82
2022/10/24 09:32:44;;;;;;;2.03;1.13;;;16.30;99.90;;;;;;5012467;28;20019;-82
2022/10/24 09:35:22;;;;;;;2.15;1.67;;;16.30;99.90;;;;;;5028998;28;20018;-82
2022/10/24 09:37:55;;;;;;;2.95;1.48;;;16.30;99.90;;;;;;5033039;28;20030;-80
2022/10/24 09:40:32;;;;;;;3.35;1.92;;;16.30;99.90;;;;;;5001288;28;20073;-83
2022/10/24 09:42:59;;;;;;;3.72;1.73;;;16.20;99.90;;;;;;4996947;28;20069;-82
2022/10/24 09:45:36;;;;;;;2.63;1.55;;;16.10;99.90;;;;;;4988794;28;20090;-81
2022/10/24 09:48:27;;;;;;;3.10;1.65;;;16.00;99.90;;;;;;4983958;28;20019;-82
2022/10/24 09:50:54;;;;;;;2.03;1.33;;;16.00;99.90;;;;;;4986341;28;20082;-82
2022/10/24 09:53:26;;;;;;;2.13;1.33;;;16.00;99.90;;;;;;4989423;28;20061;-82
2022/10/24 09:55:56;;;;;;;3.08;1.52;;;16.00;99.90;;;;;;5000634;28;20079;-81
2022/10/24 09:58:34;;;;;;;2.15;1.42;;;16.00;99.90;;;;;;5000181;28;20043;-83
2022/10/24 10:01:06;;;;;;;5.72;2.10;;;16.10;99.90;;;;;;5000348;28;20038;-82
2022/10/24 10:03:33;;;;;;;4.10;2.05;;;16.10;99.90;;;;;;5010373;28;20064;-82
2022/10/24 10:06:14;;;;;;;2.97;1.58;;;16.20;99.90;;;;;;5018075;28;20030;-81
2022/10/24 10:08:40;;;;;;;9.45;2.35;;;16.20;99.90;;;;;;4991436;28;20023;-83
2022/10/24 10:11:09;;;;;;;1.77;1.50;;;16.20;99.90;;;;;;4997892;28;20407;-82
2022/10/24 10:13:48;;;;;;;3.88;2.35;;;16.10;99.90;;;;;;5000942;28;20471;-82
2022/10/24 10:16:24;;;;;;;5.38;2.65;;;16.00;99.90;;;;;;5018591;28;20060;-81
2022/10/24 10:18:50;;;;;;;3.67;2.30;;;15.90;99.90;;;;;;5001221;28;20050;-82
2022/10/24 10:21:19;;;;;;;4.10;1.80;;;15.80;99.90;;;;;;5005549;28;20034;-82
2022/10/24 10:23:52;;;;;;;4.60;1.80;;;15.70;99.90;;;;;;4997751;28;20080;-81
2022/10/24 10:26:18;;;;;;;2.95;1.83;;;15.60;99.90;;;;;;4998351;28;20256;-82
2022/10/24 10:28:57;;;;;;;3.20;2.00;;;15.60;99.90;;;;;;4998716;28;20057;-83
2022/10/24 10:31:34;;;;;;;6.40;2.13;;;15.60;99.90;;;;;;5003823;28;20471;-81
2022/10/24 10:34:18;;;;;;;3.63;1.73;;;15.60;99.90;;;;;;5008647;28;20049;-82
2022/10/24 10:36:52;;;;;;;3.38;1.80;;;15.50;99.90;;;;;;5002122;28;20057;-82
2022/10/24 10:39:36;;;;;;;3.17;1.90;;;15.60;99.90;;;;;;5006567;28;20084;-83
2022/10/24 10:42:18;;;;;;;4.20;2.17;;;15.60;99.90;;;;;;5003449;28;20025;-83
2022/10/24 10:45:04;;;;;;;2.65;1.67;;;15.60;99.90;;;;;;5008055;28;20036;-83
2022/10/24 10:47:56;;;;;;;2.55;2.00;;;15.60;99.90;;;;;;5006499;28;20094;-83
2022/10/24 10:50:31;;;;;;;6.80;2.00;;;15.70;99.90;;;;;;5005492;28;20061;-82
2022/10/24 10:53:15;;;;;;;5.15;1.88;;;15.70;99.90;;;;;;5003340;28;20041;-81
2022/10/24 10:55:58;;;;;;;3.90;1.70;;;15.70;99.90;;;;;;5000740;28;20019;-82
2022/10/24 10:58:35;;;;;;;4.35;1.75;;;15.70;99.90;;;;;;5001220;28;20026;-81
2022/10/24 11:01:05;;;;;;;4.15;2.00;;;15.60;99.90;;;;;;5005011;28;20053;-82
2022/10/24 11:03:46;;;;;;;2.92;1.77;;;15.60;99.90;;;;;;5019576;28;20018;-82
2022/10/24 11:06:33;;;;;;;5.18;1.90;;;15.50;99.90;;;;;;5025274;28;20133;-81
2022/10/24 11:09:19;;;;;;;6.43;2.53;;;15.50;99.90;;;;;;5026051;28;20045;-82
2022/10/24 11:11:52;;;;;;;5.32;2.25;;;15.40;99.90;;;;;;5008093;28;20053;-80
2022/10/24 11:14:25;;;;;;;9.10;3.08;;;15.40;99.90;;;;;;5007818;28;20089;-82
2022/10/24 11:16:55;;;;;;;6.20;2.22;;;15.40;99.90;;;;;;5008663;28;20061;-82
2022/10/24 11:20:03;;;;;;;8.55;2.80;;;15.30;99.90;;;;;;5013286;28;20027;-82
2022/10/24 11:22:37;;;;;;;5.28;2.25;;;15.20;99.90;;;;;;4955835;28;20028;-81
2022/10/24 11:25:24;;;;;;;4.82;2.47;;;15.20;99.90;;;;;;4991330;28;20034;-82
2022/10/24 11:28:08;;;;;;;7.18;2.47;;;15.10;99.90;;;;;;5012257;28;20057;-83
2022/10/24 11:30:44;;;;;;;5.30;2.47;;;15.00;99.90;;;;;;5013500;28;20098;-82
2022/10/24 11:33:20;;;;;;;3.88;2.35;;;15.00;99.90;;;;;;5015605;28;20010;-82
2022/10/24 11:36:05;;;;;;;7.70;2.63;;;15.00;99.90;;;;;;5000881;28;20023;-83
2022/10/24 11:38:49;;;;;;;6.05;1.88;;;15.00;99.90;;;;;;5019721;28;20015;-83
2022/10/24 11:41:55;;;;;;;7.38;2.25;;;15.00;99.90;;;;;;5020011;28;20043;-82
2022/10/24 11:44:50;;;;;;;6.05;2.58;;;15.10;99.90;;;;;;4996461;28;20081;-83
2022/10/24 11:47:22;;;;;;;6.35;1.80;;;15.00;99.90;;;;;;5018414;28;20029;-82
2022/10/24 11:49:55;;;;;;;5.47;1.98;;;14.90;99.90;;;;;;5019568;28;20463;-82
2022/10/24 11:52:28;;;;;;;11.95;2.55;;;14.90;99.90;;;;;;5019198;28;20018;-83
2022/10/24 11:55:13;;;;;;;3.03;1.83;;;15.00;99.90;;;;;;5017596;28;20061;-82
2022/10/24 11:57:44;;;;;;;3.17;1.42;;;14.90;99.90;;;;;;4990536;28;20039;-81
2022/10/24 12:00:19;;;;;;;4.93;2.00;;;14.90;99.90;;;;;;5007438;28;20030;-80
2022/10/24 12:02:48;;;;;;;9.48;3.03;;;14.90;99.90;;;;;;4992564;28;20041;-81
2022/10/24 12:05:29;;;;;;;9.18;2.08;;;14.80;99.90;;;;;;5013142;28;20022;-80
2022/10/24 12:08:03;;;;;;;8.38;2.33;;;14.80;99.90;;;;;;5014893;28;20495;-81
2022/10/24 12:11:00;;;;;;;4.80;2.00;;;14.70;99.90;;;;;;4993593;28;20031;-81
2022/10/24 12:13:29;;;;;;;6.13;1.98;;;14.70;99.90;;;;;;5011990;28;20046;-81
2022/10/24 12:16:17;;;;;;;7.75;2.22;;;14.70;99.90;;;;;;5005273;28;20066;-81
2022/10/24 12:18:49;;;;;;;8.45;2.55;;;14.70;99.90;;;;;;4994044;28;20079;-82
2022/10/24 12:21:19;;;;;;;4.00;1.77;;;14.70;99.90;;;;;;4991283;28;20058;-82
2022/10/24 12:24:26;;;;;;;9.55;2.38;;;14.60;99.90;;;;;;5003022;28;20037;-83
2022/10/24 12:26:59;;;;;;;5.00;2.25;;;14.60;99.90;;;;;;5000675;28;20023;-81
2022/10/24 12:29:26;;;;;;;5.53;1.73;;;14.50;99.90;;;;;;5008826;28;20046;-81
2022/10/24 12:31:52;;;;;;;6.55;2.00;;;14.50;99.90;;;;;;5005672;28;20034;-80
2022/10/24 12:34:18;;;;;;;2.85;1.75;;;14.50;99.90;;;;;;4988004;28;20036;-82
2022/10/24 12:37:11;;;;;;;3.92;1.80;;;14.50;99.90;;;;;;4974836;28;20129;-82
2022/10/24 12:39:45;;;;;;;4.70;1.70;;;14.50;99.90;;;;;;5008332;28;20041;-81
2022/10/24 12:42:22;;;;;;;5.82;2.13;;;14.60;99.90;;;;;;5019693;28;20105;-81
2022/10/24 12:45:11;;;;;;;8.05;2.15;;;14.60;99.90;;;;;;5009926;28;20046;-81
2022/10/24 12:47:39;;;;;;;3.22;1.70;;;14.60;99.90;;;;;;5004538;28;20037;-81
2022/10/24 12:50:22;;;;;;;5.07;1.98;;;14.60;99.90;;;;;;5009624;28;20030;-81
2022/10/24 12:52:47;;;;;;;5.80;2.13;;;14.60;99.90;;;;;;5006371;28;20514;-81
2022/10/24 12:55:34;;;;;;;3.60;1.63;;;14.60;99.90;;;;;;5010680;28;20022;-80
2022/10/24 12:58:01;;;;;;;4.38;2.13;;;14.60;99.90;;;;;;4986746;28;20043;-80
2022/10/24 13:00:29;;;;;;;4.18;2.25;;;14.60;99.90;;;;;;5014914;28;20049;-80
2022/10/24 13:03:17;;;;;;;5.20;2.53;;;14.60;99.90;;;;;;5024211;28;20089;-82
2022/10/24 13:06:06;;;;;;;4.07;1.92;;;14.70;99.90;;;;;;4987535;28;20023;-81